Time;durP1;ratioP1;P1;durP2;ratioP2;P2;SDS_P1;SDS_P2;PMS_P1;PMS_P2;Temp;Humidity;BMP_temperature;BMP_pressure;BME280_temperature;BME280_humidity;BME280_pressure;Samples;Min_cycle;Max_cycle;Signal;HPM_P1;HPM_P2
2022/07/21 00:00:20;;;;;;;3.65;1.77;;;;;;;16.12;68.29;100785.12;1747475;82;21587;-61
2022/07/21 00:02:49;;;;;;;4.42;1.67;;;;;;;16.10;68.29;100780.38;1747661;81;21151;-61
2022/07/21 00:05:18;;;;;;;2.80;1.32;;;;;;;16.08;68.21;100773.83;1747809;82;21069;-61
2022/07/21 00:07:47;;;;;;;4.78;1.50;;;;;;;16.07;68.38;100773.47;1747702;82;21077;-61
2022/07/21 00:10:17;;;;;;;8.63;1.62;;;;;;;16.08;68.60;100769.84;1747687;82;21578;-61
2022/07/21 00:12:45;;;;;;;3.02;1.57;;;;;;;16.08;68.72;100767.19;1747716;82;21070;-61
2022/07/21 00:15:16;;;;;;;2.92;1.60;;;;;;;16.11;68.45;100764.35;1747648;82;21147;-61
2022/07/21 00:17:45;;;;;;;5.87;1.70;;;;;;;16.12;68.36;100759.88;1747812;82;21069;-61
2022/07/21 00:20:16;;;;;;;3.02;1.72;;;;;;;16.15;68.33;100765.02;1747680;82;21634;-61
2022/07/21 00:22:46;;;;;;;5.53;1.75;;;;;;;16.18;68.29;100755.05;1747708;82;21163;-61
2022/07/21 00:25:16;;;;;;;3.90;1.52;;;;;;;16.18;68.54;100755.05;1747716;82;21576;-61
2022/07/21 00:27:44;;;;;;;7.75;1.75;;;;;;;16.21;69.00;100752.22;1747540;82;21101;-61
2022/07/21 00:30:14;;;;;;;3.35;1.85;;;;;;;16.26;69.11;100751.07;1747662;82;21568;-61
2022/07/21 00:32:43;;;;;;;2.80;1.50;;;;;;;16.32;69.26;100749.34;1747761;82;21120;-60
2022/07/21 00:35:13;;;;;;;5.50;1.52;;;;;;;16.40;69.29;100747.92;1747822;82;21070;-60
2022/07/21 00:37:42;;;;;;;7.92;2.47;;;;;;;16.46;68.80;100745.34;1747712;82;21085;-61
2022/07/21 00:40:13;;;;;;;2.98;1.50;;;;;;;16.45;68.39;100750.30;1747705;82;21069;-61
2022/07/21 00:42:43;;;;;;;3.42;1.60;;;;;;;16.44;68.15;100758.37;1747811;82;21147;-61
2022/07/21 00:45:13;;;;;;;3.42;2.12;;;;;;;16.40;68.00;100748.41;1747735;82;21578;-60
2022/07/21 00:47:42;;;;;;;6.60;2.15;;;;;;;16.37;67.97;100748.59;1747714;82;21520;-60
2022/07/21 00:50:14;;;;;;;6.10;2.70;;;;;;;16.33;68.49;100739.11;1747705;82;21065;-60
2022/07/21 00:52:43;;;;;;;5.80;2.50;;;;;;;16.31;68.98;100735.70;1747623;81;21634;-61
2022/07/21 00:55:17;;;;;;;5.42;2.40;;;;;;;16.30;69.21;100736.64;1747711;82;21128;-60
2022/07/21 00:57:47;;;;;;;7.90;2.22;;;;;;;16.31;69.73;100739.69;1747682;82;21163;-60
2022/07/21 01:00:19;;;;;;;7.33;2.22;;;;;;;16.35;70.10;100730.56;1747673;82;21069;-61
2022/07/21 01:02:48;;;;;;;4.15;1.80;;;;;;;16.40;70.49;100733.79;1747701;82;21516;-61
2022/07/21 01:05:18;;;;;;;4.37;1.82;;;;;;;16.49;70.88;100734.53;1747705;82;21046;-61
2022/07/21 01:07:50;;;;;;;6.92;1.62;;;;;;;16.57;71.06;100729.56;1747885;82;21045;-61
2022/07/21 01:10:21;;;;;;;4.87;2.17;;;;;;;16.67;71.03;100724.98;1747770;82;21073;-61
2022/07/21 01:12:50;;;;;;;3.98;1.80;;;;;;;16.73;70.96;100720.61;1747804;82;21070;-60
2022/07/21 01:15:20;;;;;;;3.83;1.95;;;;;;;16.78;71.17;100716.70;1747698;82;21069;-60
2022/07/21 01:17:49;;;;;;;4.62;2.37;;;;;;;16.85;71.35;100714.50;1747612;82;21144;-61
2022/07/21 01:20:20;;;;;;;3.75;1.90;;;;;;;16.92;71.43;100717.63;1747772;82;21527;-60
2022/07/21 01:22:51;;;;;;;3.33;1.65;;;;;;;17.00;71.72;100716.62;1747790;82;21041;-60
2022/07/21 01:25:21;;;;;;;5.95;2.30;;;;;;;17.11;71.82;100714.09;1747679;82;21549;-61
2022/07/21 01:27:50;;;;;;;8.20;2.20;;;;;;;17.23;71.85;100715.10;1747899;81;21143;-61
2022/07/21 01:30:19;;;;;;;7.00;1.92;;;;;;;17.31;71.74;100709.26;1753695;82;21085;-61
2022/07/21 01:32:48;;;;;;;3.08;2.20;;;;;;;17.39;71.79;100708.25;1753772;82;21573;-61
2022/07/21 01:35:17;;;;;;;3.50;1.90;;;;;;;17.47;71.71;100714.41;1753781;82;21147;-61
2022/07/21 01:37:47;;;;;;;4.15;2.27;;;;;;;17.53;71.77;100710.82;1753787;81;21504;-61
2022/07/21 01:43:06;;;;;;;3.75;2.47;;;;;;;17.62;71.72;100708.50;1753893;82;21089;-61
2022/07/21 01:45:34;;;;;;;5.75;2.42;;;;;;;17.64;71.85;100714.08;1753904;82;21088;-60
2022/07/21 01:50:52;;;;;;;7.65;2.22;;;;;;;17.68;71.95;100713.39;1805683;79;21094;-61
2022/07/21 01:53:21;;;;;;;6.35;2.70;;;;;;;17.68;71.80;100713.39;1773075;81;21176;-61
2022/07/21 01:55:50;;;;;;;7.25;2.30;;;;;;;17.63;71.69;100711.06;1805595;79;21573;-61
2022/07/21 01:58:18;;;;;;;7.42;2.40;;;;;;;17.59;71.63;100711.36;1773132;81;21066;-61
2022/07/21 02:00:47;;;;;;;4.90;2.05;;;;;;;17.51;71.72;100714.56;1805581;79;21067;-61
2022/07/21 02:03:16;;;;;;;5.62;2.17;;;;;;;17.45;71.62;100709.66;1773136;81;21073;-60
2022/07/21 02:05:45;;;;;;;3.40;1.82;;;;;;;17.39;71.62;100711.39;1805480;79;21075;-61
2022/07/21 02:08:13;;;;;;;11.25;2.98;;;;;;;17.38;71.85;100709.70;1773226;81;21168;-61
2022/07/21 02:10:42;;;;;;;9.05;2.15;;;;;;;17.39;72.15;100708.25;1805584;79;21058;-61
2022/07/21 02:13:11;;;;;;;4.83;2.60;;;;;;;17.43;72.06;100703.56;1773105;81;21611;-61
2022/07/21 02:15:39;;;;;;;7.05;2.33;;;;;;;17.42;72.03;100702.72;1805602;79;21066;-60
2022/07/21 02:18:08;;;;;;;5.83;2.08;;;;;;;17.44;72.16;100705.28;1773013;81;21151;-61
2022/07/21 02:20:36;;;;;;;5.92;1.95;;;;;;;17.43;71.87;100708.89;1805678;79;21169;-61
2022/07/21 02:23:05;;;;;;;6.28;1.80;;;;;;;17.42;71.67;100709.38;1773005;81;21097;-60
2022/07/21 02:25:33;;;;;;;3.83;2.33;;;;;;;17.38;71.53;100710.55;1805529;79;21553;-61
2022/07/21 02:28:02;;;;;;;4.37;2.60;;;;;;;17.36;71.46;100703.16;1773017;81;21600;-61
2022/07/21 02:30:31;;;;;;;6.60;2.12;;;;;;;17.36;71.56;100702.66;1805458;79;21125;-63
2022/07/21 02:32:59;;;;;;;4.47;2.20;;;;;;;17.43;71.66;100698.24;1773038;81;21165;-60
2022/07/21 02:35:28;;;;;;;6.05;2.20;;;;;;;17.53;71.81;100699.33;1805489;79;21137;-60
2022/07/21 02:37:57;;;;;;;4.15;1.80;;;;;;;17.65;71.93;100706.48;1773011;81;21607;-61
2022/07/21 02:40:25;;;;;;;3.50;2.08;;;;;;;17.75;71.79;100734.64;1805557;79;21067;-61
2022/07/21 02:42:54;;;;;;;5.15;1.67;;;;;;;17.87;71.77;100728.96;1772983;81;21117;-61
2022/07/21 02:45:23;;;;;;;4.25;2.40;;;;;;;17.98;71.86;100718.41;1805482;79;21130;-61
2022/07/21 02:47:54;;;;;;;4.85;2.00;;;;;;;18.09;71.75;100722.98;1772962;81;21077;-61
2022/07/21 02:50:26;;;;;;;2.45;1.85;;;;;;;18.21;71.64;100738.59;1790207;79;21190;-60
2022/07/21 02:53:00;;;;;;;4.17;2.33;;;;;;;18.37;71.65;100734.33;1777641;81;21154;-61
2022/07/21 02:55:30;;;;;;;4.00;2.02;;;;;;;18.50;71.58;100728.02;1777600;81;21064;-61
2022/07/21 02:58:13;;;;;;;8.93;2.30;;;;;;;18.61;71.25;100723.70;1777627;81;21056;-60
2022/07/21 03:00:45;;;;;;;12.28;2.77;;;;;;;18.71;70.94;100718.08;1777594;81;21613;-61
2022/07/21 03:03:13;;;;;;;9.68;2.70;;;;;;;18.77;70.60;100717.61;1775593;81;21097;-61
2022/07/21 03:05:43;;;;;;;9.25;2.42;;;;;;;18.92;70.56;100724.15;1777637;81;21068;-60
2022/07/21 03:08:12;;;;;;;8.70;2.20;;;;;;;19.14;70.40;100721.56;1777546;81;21581;-61
2022/07/21 03:10:41;;;;;;;14.60;2.50;;;;;;;19.39;70.15;100719.72;1777660;81;21068;-60
2022/07/21 03:13:10;;;;;;;9.63;1.95;;;;;;;19.74;69.33;100717.02;1777553;81;21530;-60
2022/07/21 03:15:40;;;;;;;7.60;2.65;;;;;;;19.97;68.97;100721.88;1777597;81;21071;-61
2022/07/21 03:18:08;;;;;;;6.78;3.02;;;;;;;20.12;68.91;100723.86;1777707;81;21146;-61
2022/07/21 03:20:40;;;;;;;9.95;2.05;;;;;;;20.23;68.35;100717.63;1777500;81;21128;-61
2022/07/21 03:23:09;;;;;;;8.48;2.30;;;;;;;20.30;67.44;100713.48;1777742;81;21080;-61
2022/07/21 03:25:37;;;;;;;10.25;2.15;;;;;;;20.35;67.04;100722.00;1777763;81;21044;-61
2022/07/21 03:28:07;;;;;;;8.70;2.27;;;;;;;20.42;66.84;100710.33;1777631;81;21110;-60
2022/07/21 03:30:37;;;;;;;5.55;2.25;;;;;;;20.53;66.92;100714.31;1777647;81;21491;-61
2022/07/21 03:33:06;;;;;;;7.17;2.27;;;;;;;20.60;66.59;100715.55;1777695;81;21087;-62
2022/07/21 03:35:41;;;;;;;7.00;2.45;;;;;;;20.70;66.48;100708.11;1777591;79;21147;-61
2022/07/21 03:38:06;;;;;;;4.95;2.02;;;;;;;20.79;66.35;100714.87;1776760;81;21096;-60
2022/07/21 03:40:36;;;;;;;9.30;2.15;;;;;;;20.89;65.99;100709.61;1777614;81;21567;-60
2022/07/21 03:43:08;;;;;;;8.20;2.12;;;;;;;20.97;65.74;100700.93;1777670;81;21060;-60
2022/07/21 03:45:37;;;;;;;12.03;1.98;;;;;;;21.03;65.40;100707.13;1777662;81;21107;-61
2022/07/21 03:48:07;;;;;;;5.25;2.15;;;;;;;21.12;65.26;100705.02;1777627;80;21032;-61
2022/07/21 03:50:38;;;;;;;4.45;1.90;;;;;;;21.17;64.91;100704.62;1777637;80;21221;-60
2022/07/21 03:53:09;;;;;;;6.17;1.90;;;;;;;21.24;64.75;100700.94;1777727;81;21636;-61
2022/07/21 03:55:37;;;;;;;5.55;2.10;;;;;;;21.35;64.64;100699.54;1777634;81;21162;-61
2022/07/21 03:58:06;;;;;;;6.47;2.40;;;;;;;21.46;64.50;100699.50;1777560;81;21597;-63
2022/07/21 04:00:38;;;;;;;5.95;1.75;;;;;;;21.58;64.44;100706.99;1777537;81;21044;-62
2022/07/21 04:03:07;;;;;;;7.45;2.50;;;;;;;21.65;63.97;100699.25;1777603;79;21132;-61
2022/07/21 04:05:37;;;;;;;3.70;1.90;;;;;;;21.76;63.75;100707.20;1777603;81;21180;-62
2022/07/21 04:08:07;;;;;;;8.10;2.40;;;;;;;21.87;63.32;100706.28;1777600;81;21099;-62
2022/07/21 04:10:37;;;;;;;6.40;2.15;;;;;;;21.96;63.05;100690.23;1777660;81;21483;-62
2022/07/21 04:13:09;;;;;;;9.23;2.50;;;;;;;22.09;62.67;100698.54;1777619;81;21143;-61
2022/07/21 04:15:38;;;;;;;5.55;2.25;;;;;;;22.23;62.48;100702.19;1777572;81;21523;-61
2022/07/21 04:18:08;;;;;;;4.03;2.25;;;;;;;22.33;62.22;100703.08;1777550;81;21206;-62
2022/07/21 04:20:37;;;;;;;7.47;2.25;;;;;;;22.46;62.03;100700.66;1777536;81;21941;-61
2022/07/21 04:23:06;;;;;;;3.17;2.10;;;;;;;22.65;61.77;100703.38;1777580;81;21092;-62
2022/07/21 04:25:35;;;;;;;6.15;2.80;;;;;;;22.92;61.38;100705.86;1777536;81;21191;-61
2022/07/21 04:28:04;;;;;;;11.68;2.22;;;;;;;23.20;61.10;100709.58;1777757;81;21142;-62
2022/07/21 04:30:33;;;;;;;5.55;2.15;;;;;;;23.44;60.78;100709.13;1777674;81;21067;-61
2022/07/21 04:33:01;;;;;;;3.75;2.27;;;;;;;23.74;60.52;100708.55;1777562;81;21085;-62
2022/07/21 04:35:30;;;;;;;3.70;2.62;;;;;;;23.93;60.33;100712.20;1777542;81;21614;-61
2022/07/21 04:37:59;;;;;;;7.37;2.55;;;;;;;23.94;60.21;100699.09;1777474;79;21550;-62
2022/07/21 04:40:27;;;;;;;5.28;2.40;;;;;;;24.11;60.06;100690.25;1777660;81;21048;-62
2022/07/21 04:42:56;;;;;;;11.65;5.17;;;;;;;24.37;59.85;100698.97;1777547;81;21096;-62
2022/07/21 04:45:26;;;;;;;6.12;4.17;;;;;;;24.65;59.24;100687.17;1777573;81;21067;-61
2022/07/21 04:47:55;;;;;;;4.72;2.50;;;;;;;24.83;58.95;100695.27;1777566;81;21096;-61
2022/07/21 04:50:26;;;;;;;6.62;2.95;;;;;;;25.01;58.42;100691.22;1777506;81;21064;-62
2022/07/21 04:52:56;;;;;;;7.45;2.70;;;;;;;25.22;58.32;100691.39;1777530;80;21270;-62
2022/07/21 04:55:24;;;;;;;6.05;2.15;;;;;;;25.47;58.00;100686.20;1777654;81;21589;-61
2022/07/21 04:57:54;;;;;;;3.60;2.15;;;;;;;25.63;57.31;100679.56;1777642;81;21097;-62
2022/07/21 05:00:25;;;;;;;6.55;2.55;;;;;;;25.74;56.83;100677.94;1777632;81;21088;-62
2022/07/21 05:02:55;;;;;;;5.05;2.27;;;;;;;25.87;56.39;100671.27;1777556;81;21515;-62
2022/07/21 05:05:23;;;;;;;6.05;2.92;;;;;;;26.08;56.25;100670.39;1777593;81;21079;-62
2022/07/21 05:07:52;;;;;;;6.62;2.05;;;;;;;26.34;55.40;100668.11;1777621;81;21101;-61
2022/07/21 05:10:21;;;;;;;7.75;2.40;;;;;;;26.54;54.84;100661.41;1777673;81;21076;-62
2022/07/21 05:12:49;;;;;;;5.42;2.33;;;;;;;26.77;54.06;100656.22;1777612;81;21048;-62
2022/07/21 05:15:18;;;;;;;5.92;2.20;;;;;;;26.84;53.04;100659.10;1777538;79;21072;-62
2022/07/21 05:17:46;;;;;;;5.35;2.00;;;;;;;26.93;52.31;100654.55;1777524;81;21166;-62
2022/07/21 05:20:15;;;;;;;4.83;2.30;;;;;;;27.03;52.28;100658.42;1777591;81;21067;-62
2022/07/21 05:22:44;;;;;;;9.33;4.08;;;;;;;27.35;52.42;100657.56;1777537;81;21575;-61
2022/07/21 05:25:12;;;;;;;3.55;2.10;;;;;;;27.59;51.76;100654.48;1777671;80;21040;-62
2022/07/21 05:27:41;;;;;;;6.75;1.90;;;;;;;27.85;51.22;100647.45;1777581;81;21036;-62
2022/07/21 05:30:11;;;;;;;3.83;2.20;;;;;;;27.97;50.54;100640.67;1777570;81;21068;-61
2022/07/21 05:32:40;;;;;;;5.65;1.98;;;;;;;28.13;50.43;100642.95;1777680;81;21119;-63
2022/07/21 05:35:11;;;;;;;8.98;1.85;;;;;;;28.35;49.99;100641.31;1777593;81;21080;-61
2022/07/21 05:37:41;;;;;;;4.10;2.10;;;;;;;28.67;49.74;100643.00;1777609;81;21503;-62
2022/07/21 05:40:11;;;;;;;6.08;2.70;;;;;;;28.93;49.21;100636.36;1777220;81;21076;-61
2022/07/21 05:42:40;;;;;;;5.40;2.00;;;;;;;29.07;48.25;100633.69;1777455;81;21100;-62
2022/07/21 05:45:10;;;;;;;6.22;2.20;;;;;;;29.13;48.14;100636.17;1777589;81;21167;-62
2022/07/21 05:47:39;;;;;;;7.35;2.40;;;;;;;29.22;47.76;100636.45;1777611;81;21179;-62
2022/07/21 05:50:09;;;;;;;5.37;2.08;;;;;;;29.46;47.29;100633.16;1777630;80;21198;-62
2022/07/21 05:52:37;;;;;;;4.83;2.12;;;;;;;29.79;47.30;100640.95;1777562;78;21212;-62
2022/07/21 05:55:07;;;;;;;4.37;2.00;;;;;;;30.17;46.62;100639.42;1777477;80;21102;-62
2022/07/21 05:57:36;;;;;;;7.30;2.15;;;;;;;30.50;46.06;100637.10;1777661;81;21075;-62
2022/07/21 06:00:06;;;;;;;5.28;1.95;;;;;;;30.83;45.33;100652.06;1777565;81;21093;-62
2022/07/21 06:02:35;;;;;;;3.58;1.72;;;;;;;30.98;44.61;100655.03;1777529;81;21527;-62
2022/07/21 06:05:07;;;;;;;3.45;1.80;;;;;;;31.20;44.00;100652.81;1777539;81;21068;-62
2022/07/21 06:07:35;;;;;;;5.37;1.75;;;;;;;31.37;43.55;100651.46;1777454;81;21111;-62
2022/07/21 06:10:04;;;;;;;3.98;1.50;;;;;;;31.55;43.08;100650.45;1777627;81;21089;-62
2022/07/21 06:12:33;;;;;;;2.60;1.55;;;;;;;31.69;42.39;100645.11;1777621;81;21072;-62
2022/07/21 06:15:02;;;;;;;2.98;1.70;;;;;;;31.75;41.31;100652.47;1777538;81;21563;-62
2022/07/21 06:17:32;;;;;;;5.00;1.60;;;;;;;31.88;41.30;100655.77;1777635;81;21101;-62
2022/07/21 06:20:00;;;;;;;5.85;1.40;;;;;;;31.97;40.92;100658.64;1777550;81;21105;-63
2022/07/21 06:22:29;;;;;;;5.00;2.00;;;;;;;32.10;40.41;100657.89;1777500;81;21195;-61
2022/07/21 06:24:58;;;;;;;4.28;1.80;;;;;;;32.11;40.17;100650.02;1777731;81;21467;-62
2022/07/21 06:27:26;;;;;;;3.65;1.70;;;;;;;32.20;40.26;100648.80;1777708;81;21075;-62
2022/07/21 06:29:56;;;;;;;5.85;1.70;;;;;;;32.34;40.08;100647.49;1777765;81;21063;-62
2022/07/21 06:32:25;;;;;;;7.65;2.22;;;;;;;32.54;39.85;100648.38;1777687;81;21542;-62
2022/07/21 06:34:54;;;;;;;5.35;1.70;;;;;;;32.42;39.42;100651.38;1777591;81;21143;-62
2022/07/21 06:37:22;;;;;;;2.58;1.60;;;;;;;32.02;39.33;100652.57;1777660;81;21048;-61
2022/07/21 06:39:51;;;;;;;2.65;1.95;;;;;;;32.10;39.17;100645.63;1777737;81;21040;-62
2022/07/21 06:42:20;;;;;;;2.12;1.40;;;;;;;32.23;38.74;100644.31;1777619;81;21052;-62
2022/07/21 06:44:49;;;;;;;5.53;1.80;;;;;;;32.24;38.86;100643.28;1777652;80;21125;-62
2022/07/21 06:47:18;;;;;;;4.85;1.70;;;;;;;32.26;38.20;100649.36;1777708;81;21080;-62
2022/07/21 06:49:46;;;;;;;3.12;1.55;;;;;;;32.47;38.40;100648.34;1777630;81;21523;-62
2022/07/21 06:52:15;;;;;;;7.72;2.00;;;;;;;32.75;38.27;100642.45;1777592;79;21138;-62
2022/07/21 06:54:43;;;;;;;5.00;1.92;;;;;;;33.01;37.69;100637.52;1778011;81;21645;-61
2022/07/21 06:57:13;;;;;;;3.27;1.55;;;;;;;32.73;37.32;100639.09;1777969;81;21064;-62
2022/07/21 06:59:42;;;;;;;3.25;2.12;;;;;;;32.04;38.07;100643.70;1777912;81;21530;-62
2022/07/21 07:02:10;;;;;;;8.93;2.10;;;;;;;31.54;38.58;100632.47;1778043;81;21068;-62
2022/07/21 07:04:39;;;;;;;5.33;2.20;;;;;;;30.74;39.21;100631.80;1777879;81;21185;-62
2022/07/21 07:07:08;;;;;;;6.40;1.82;;;;;;;30.84;39.70;100635.56;1778007;81;21064;-61
2022/07/21 07:09:37;;;;;;;5.97;2.55;;;;;;;31.03;39.91;100631.34;1777927;81;21146;-62
2022/07/21 07:12:08;;;;;;;3.92;2.50;;;;;;;31.01;39.87;100627.98;1777947;79;21064;-63
2022/07/21 07:14:37;;;;;;;4.30;1.92;;;;;;;31.58;39.79;100627.97;1777891;81;21142;-62
2022/07/21 07:17:06;;;;;;;4.08;1.75;;;;;;;32.38;39.41;100633.77;1777997;81;21063;-62
2022/07/21 07:19:34;;;;;;;3.52;1.72;;;;;;;33.02;38.79;100626.41;1777886;81;21146;-62
2022/07/21 07:22:03;;;;;;;6.80;1.85;;;;;;;32.89;38.78;100620.97;1777900;81;21088;-61
2022/07/21 07:24:31;;;;;;;4.35;1.90;;;;;;;32.31;39.24;100622.84;1777974;81;21142;-61
2022/07/21 07:27:00;;;;;;;5.78;1.90;;;;;;;31.61;39.78;100622.96;1777857;81;21060;-62
2022/07/21 07:29:29;;;;;;;3.85;1.50;;;;;;;31.16;40.18;100615.12;1778020;81;21068;-62
2022/07/21 07:31:57;;;;;;;4.60;1.17;;;;;;;30.88;40.69;100614.27;1777932;81;21143;-62
2022/07/21 07:34:26;;;;;;;4.58;1.45;;;;;;;30.65;40.93;100608.50;1777940;81;21585;-62
2022/07/21 07:36:55;;;;;;;3.08;1.30;;;;;;;30.45;41.16;100614.27;1777850;81;21130;-63
2022/07/21 07:39:23;;;;;;;2.15;1.02;;;;;;;30.27;41.50;100626.39;1777833;81;21511;-61
2022/07/21 07:41:52;;;;;;;4.40;1.10;;;;;;;29.89;42.01;100631.99;1778032;81;21056;-61
2022/07/21 08:15:31;;;;;;;2.90;1.52;;;;;;;26.89;57.97;100720.72;1943609;74;27979;-59
2022/07/21 08:18:01;;;;;;;3.80;1.60;;;;;;;26.70;55.97;100751.58;1953639;73;21529;-61
2022/07/21 08:20:30;;;;;;;2.02;1.22;;;;;;;25.69;55.34;100769.24;1953614;73;21047;-59
2022/07/21 08:22:59;;;;;;;3.02;1.70;;;;;;;24.74;55.58;100759.97;1953809;73;21180;-59
2022/07/21 08:25:27;;;;;;;3.62;2.15;;;;;;;23.87;56.43;100731.11;1953644;73;21035;-59
2022/07/21 08:27:56;;;;;;;7.83;2.50;;;;;;;23.30;57.39;100714.94;1953757;73;21027;-59
2022/07/21 08:30:25;;;;;;;5.20;2.20;;;;;;;22.91;58.01;100698.81;1953606;73;21093;-59
2022/07/21 08:32:53;;;;;;;5.80;2.70;;;;;;;22.59;58.32;100670.87;1953637;73;21477;-59
2022/07/21 08:35:22;;;;;;;6.25;2.33;;;;;;;22.27;58.76;100684.87;1953518;73;21098;-59
2022/07/21 08:38:00;;;;;;;3.00;2.00;;;;;;;22.17;58.94;100669.23;1953630;73;21537;-59
2022/07/21 08:40:31;;;;;;;4.87;2.25;;;;;;;22.22;59.06;100658.91;1953649;73;21035;-59
2022/07/21 08:43:01;;;;;;;4.42;2.22;;;;;;;22.21;59.98;100661.26;1953627;73;21465;-59
2022/07/21 08:45:30;;;;;;;7.75;2.62;;;;;;;22.27;60.54;100664.75;1953625;73;20991;-59
2022/07/21 08:48:00;;;;;;;4.60;2.62;;;;;;;22.54;60.32;100672.16;1953695;73;21086;-59
2022/07/21 08:50:31;;;;;;;5.45;2.85;;;;;;;23.08;59.93;100679.33;1953616;73;21072;-60
2022/07/21 08:53:00;;;;;;;6.80;2.42;;;;;;;23.78;59.58;100680.38;1953756;73;21023;-59
2022/07/21 08:55:34;;;;;;;7.15;2.62;;;;;;;25.01;59.08;100680.45;1953658;73;21024;-59
2022/07/21 08:58:04;;;;;;;4.28;2.10;;;;;;;25.62;58.28;100698.11;1953075;73;21111;-59
2022/07/21 09:00:34;;;;;;;3.47;2.60;;;;;;;25.97;57.63;100703.89;1953697;73;21012;-59
2022/07/21 09:03:11;;;;;;;2.90;1.77;;;;;;;26.12;57.08;100702.77;1953599;73;21509;-59
2022/07/21 09:05:40;;;;;;;4.78;2.37;;;;;;;26.29;56.90;100702.33;1953837;73;21470;-59
2022/07/21 09:08:10;;;;;;;4.42;2.00;;;;;;;27.07;56.53;100701.66;1953617;73;21121;-59
2022/07/21 09:10:39;;;;;;;5.60;2.15;;;;;;;27.62;56.06;100700.95;1953503;73;21113;-60
2022/07/21 09:13:08;;;;;;;2.47;2.05;;;;;;;28.09;55.57;100702.88;1953606;73;21063;-59
2022/07/21 09:15:38;;;;;;;4.35;2.22;;;;;;;28.55;54.91;100700.82;1934163;73;21063;-59
2022/07/21 09:18:13;;;;;;;3.45;2.22;;;;;;;28.47;54.48;100701.66;1927461;74;21032;-58
2022/07/21 09:20:49;;;;;;;4.80;2.22;;;;;;;28.15;54.64;100698.63;1927648;74;21008;-60
2022/07/21 09:23:21;;;;;;;3.95;1.90;;;;;;;27.68;55.20;100708.36;1927362;74;21052;-59
2022/07/21 09:25:55;;;;;;;4.60;2.27;;;;;;;27.20;55.63;100701.98;1927478;74;21032;-59
2022/07/21 09:28:27;;;;;;;5.05;1.92;;;;;;;26.86;56.10;100704.34;1927624;74;21097;-59
2022/07/21 09:31:11;;;;;;;3.40;2.35;;;;;;;26.63;56.32;100705.47;1927567;74;21024;-59
2022/07/21 09:33:45;;;;;;;6.67;2.45;;;;;;;26.42;56.71;100709.95;1927385;74;21004;-59
2022/07/21 09:36:20;;;;;;;5.40;1.75;;;;;;;26.19;57.17;100703.81;1927452;74;21533;-58
2022/07/21 09:38:58;;;;;;;5.33;1.75;;;;;;;26.06;57.86;100710.17;1927515;74;21424;-59
2022/07/21 09:41:28;;;;;;;4.08;1.85;;;;;;;25.88;58.15;100703.98;1927469;74;21023;-59
2022/07/21 09:43:58;;;;;;;5.15;2.08;;;;;;;25.75;58.26;100708.47;1927333;74;21032;-60
2022/07/21 09:46:28;;;;;;;5.12;2.08;;;;;;;25.59;58.46;100714.59;1927676;74;21539;-59
2022/07/21 09:49:04;;;;;;;2.98;1.77;;;;;;;25.49;58.55;100717.40;1926763;74;21011;-59
2022/07/21 09:51:44;;;;;;;5.97;2.00;;;;;;;25.37;58.82;100717.30;1927494;74;21040;-59
2022/07/21 09:54:11;;;;;;;2.60;1.60;;;;;;;25.27;59.06;100721.45;1926226;74;21031;-59
2022/07/21 09:56:42;;;;;;;4.30;1.70;;;;;;;25.14;59.30;100716.42;1927562;74;20999;-59
2022/07/21 09:59:13;;;;;;;6.08;2.05;;;;;;;25.08;59.46;100716.19;1927013;74;21040;-59
2022/07/21 10:01:42;;;;;;;4.42;2.20;;;;;;;25.07;59.42;100713.16;1927505;74;21020;-59
2022/07/21 10:04:12;;;;;;;5.22;2.25;;;;;;;25.17;59.39;100716.59;1927445;74;21039;-59
2022/07/21 10:06:41;;;;;;;2.77;1.77;;;;;;;25.29;59.29;100720.78;1927592;74;21097;-58
2022/07/21 10:09:11;;;;;;;5.12;1.77;;;;;;;25.40;59.39;100718.34;1927348;73;21031;-59
2022/07/21 10:11:43;;;;;;;2.72;1.40;;;;;;;25.45;59.24;100713.81;1927492;74;21051;-59
2022/07/21 10:14:14;;;;;;;2.95;1.52;;;;;;;25.47;59.25;100719.41;1927447;74;21098;-59
2022/07/21 10:16:43;;;;;;;3.72;1.80;;;;;;;25.48;59.21;100721.09;1950836;73;21055;-59
2022/07/21 10:19:24;;;;;;;2.55;1.50;;;;;;;25.48;59.50;100714.34;1952922;73;21031;-59
2022/07/21 10:22:10;;;;;;;4.10;1.30;;;;;;;25.47;59.63;100714.02;1952609;73;21035;-59
2022/07/21 10:24:40;;;;;;;3.15;1.35;;;;;;;25.45;59.46;100707.08;1952906;73;21064;-59
2022/07/21 10:27:12;;;;;;;3.72;1.62;;;;;;;25.37;59.46;100703.83;1952832;73;21031;-59
2022/07/21 10:29:55;;;;;;;3.15;1.40;;;;;;;25.18;59.76;100707.53;1953036;73;21011;-59
2022/07/21 10:32:29;;;;;;;1.95;1.30;;;;;;;25.04;59.79;100707.56;1952900;73;20999;-59
2022/07/21 10:35:00;;;;;;;3.60;1.40;;;;;;;24.88;59.94;100712.32;1953023;73;21031;-59
2022/07/21 10:37:43;;;;;;;5.47;1.32;;;;;;;24.75;60.03;100716.73;1952993;73;21011;-59
2022/07/21 10:40:21;;;;;;;5.45;1.67;;;;;;;24.60;60.33;100720.42;1952897;73;21088;-61
2022/07/21 10:43:01;;;;;;;3.05;1.70;;;;;;;24.46;60.50;100727.66;1953013;73;21035;-58
2022/07/21 10:45:41;;;;;;;3.15;1.82;;;;;;;24.30;60.60;100729.65;1918506;73;21501;-59
2022/07/21 10:48:28;;;;;;;2.17;1.45;;;;;;;24.16;60.85;100726.97;1952925;73;20992;-59
2022/07/21 10:51:00;;;;;;;4.10;2.02;;;;;;;24.09;60.95;100732.08;1952798;73;21099;-59
2022/07/21 10:53:29;;;;;;;4.22;1.70;;;;;;;24.02;61.15;100738.20;1952903;73;21465;-59
2022/07/21 10:55:57;;;;;;;4.53;1.67;;;;;;;23.98;61.27;100736.81;1952885;73;21582;-59
2022/07/21 10:58:29;;;;;;;3.30;1.80;;;;;;;23.99;61.33;100739.33;1952775;73;21098;-59
2022/07/21 11:01:03;;;;;;;3.12;1.62;;;;;;;24.00;61.37;100731.63;1952892;73;21031;-59
2022/07/21 11:03:34;;;;;;;2.98;1.82;;;;;;;23.97;61.66;100732.41;1952854;73;21134;-59
2022/07/21 11:06:11;;;;;;;5.58;1.95;;;;;;;23.94;61.95;100736.26;1952828;73;21106;-59
2022/07/21 11:08:45;;;;;;;2.77;1.72;;;;;;;23.97;62.01;100735.10;1952904;73;21031;-59
2022/07/21 11:11:17;;;;;;;2.55;1.80;;;;;;;23.97;61.92;100730.56;1951519;73;21031;-59
2022/07/21 11:14:10;;;;;;;2.92;1.87;;;;;;;24.02;61.95;100719.38;1952905;73;21039;-59
2022/07/21 11:16:49;;;;;;;9.28;2.25;;;;;;;24.08;62.19;100726.34;1937505;73;21059;-59
2022/07/21 11:19:32;;;;;;;2.30;1.80;;;;;;;24.37;62.04;100725.88;1927414;74;21007;-59
2022/07/21 11:22:06;;;;;;;3.50;1.75;;;;;;;24.64;62.03;100723.19;1927698;74;21559;-61
2022/07/21 11:24:36;;;;;;;3.72;2.52;;;;;;;24.85;61.58;100726.08;1927489;74;21504;-59
2022/07/21 11:27:08;;;;;;;2.70;1.47;;;;;;;24.95;61.36;100726.84;1927437;74;21577;-59
2022/07/21 11:29:39;;;;;;;4.62;1.50;;;;;;;25.07;61.30;100731.52;1927527;74;21027;-59
2022/07/21 11:32:09;;;;;;;5.53;2.10;;;;;;;25.13;61.18;100719.27;1927415;74;21031;-59
2022/07/21 11:34:59;;;;;;;3.60;2.22;;;;;;;25.03;61.38;100721.54;1927283;74;21035;-59
2022/07/21 11:37:36;;;;;;;3.62;1.82;;;;;;;25.03;61.40;100725.58;1926384;74;21036;-59
2022/07/21 11:40:16;;;;;;;3.15;1.95;;;;;;;25.05;61.22;100723.58;1927389;74;21098;-59
2022/07/21 11:42:47;;;;;;;2.87;1.82;;;;;;;25.10;61.06;100723.61;1927364;74;21164;-61
2022/07/21 11:45:17;;;;;;;3.40;1.87;;;;;;;25.13;60.99;100720.61;1927384;74;21011;-60
2022/07/21 11:47:51;;;;;;;3.95;1.92;;;;;;;25.16;61.03;100727.05;1927530;74;21008;-59
2022/07/21 11:50:20;;;;;;;4.15;2.30;;;;;;;25.14;61.06;100720.94;1927456;74;21046;-59
2022/07/21 11:52:50;;;;;;;7.05;1.87;;;;;;;25.19;60.94;100718.63;1927416;74;21007;-59
2022/07/21 11:55:19;;;;;;;3.05;1.82;;;;;;;25.23;60.82;100715.52;1927370;74;21010;-60
2022/07/21 11:57:48;;;;;;;2.77;1.70;;;;;;;25.29;60.57;100719.95;1927408;74;21125;-58
2022/07/21 12:00:17;;;;;;;4.37;1.95;;;;;;;25.48;60.33;100717.55;1927375;73;21035;-59
2022/07/21 12:02:46;;;;;;;5.08;1.50;;;;;;;25.62;60.04;100717.82;1927509;74;21097;-58
2022/07/21 12:05:15;;;;;;;4.03;1.72;;;;;;;25.85;59.65;100719.97;1927371;74;20999;-60
2022/07/21 12:07:49;;;;;;;3.02;2.05;;;;;;;26.03;59.16;100715.88;1927467;74;21027;-59
2022/07/21 12:10:27;;;;;;;5.65;2.10;;;;;;;26.16;58.44;100709.53;1927502;74;21101;-59
2022/07/21 12:13:07;;;;;;;7.05;1.90;;;;;;;26.04;57.96;100707.28;1927467;74;21118;-59
2022/07/21 12:15:39;;;;;;;4.10;1.85;;;;;;;25.80;57.82;100706.11;1927402;74;21062;-59